sensor_id;sensor_type;location;lat;lon;timestamp;pressure;altitude;pressure_sealevel;temperature;humidity
78123;BME280;67376;44.802;10.332;2023-03-01T00:01:24;101485.06;;;17.33;40.14
78123;BME280;67376;44.802;10.332;2023-03-01T00:03:51;101474.91;;;17.35;39.80
78123;BME280;67376;44.802;10.332;2023-03-01T00:06:17;101468.66;;;17.28;39.70
78123;BME280;67376;44.802;10.332;2023-03-01T00:08:43;101469.69;;;17.34;40.34
78123;BME280;67376;44.802;10.332;2023-03-01T00:11:23;101472.63;;;17.32;39.80
78123;BME280;67376;44.802;10.332;2023-03-01T00:13:50;101467.22;;;17.32;39.61
78123;BME280;67376;44.802;10.332;2023-03-01T00:16:24;101471.34;;;17.28;39.78
78123;BME280;67376;44.802;10.332;2023-03-01T00:18:50;101461.19;;;17.37;39.54
78123;BME280;67376;44.802;10.332;2023-03-01T00:21:16;101465.75;;;17.36;39.62
78123;BME280;67376;44.802;10.332;2023-03-01T00:23:42;101462.03;;;17.37;39.57
78123;BME280;67376;44.802;10.332;2023-03-01T00:26:10;101458.91;;;17.34;39.71
78123;BME280;67376;44.802;10.332;2023-03-01T00:28:36;101457.25;;;17.33;39.62
78123;BME280;67376;44.802;10.332;2023-03-01T00:31:10;101464.53;;;17.32;39.48
78123;BME280;67376;44.802;10.332;2023-03-01T00:33:36;101463.69;;;17.32;39.62
78123;BME280;67376;44.802;10.332;2023-03-01T00:36:02;101462.03;;;17.31;39.30
78123;BME280;67376;44.802;10.332;2023-03-01T00:38:28;101457.84;;;17.28;39.63
78123;BME280;67376;44.802;10.332;2023-03-01T00:40:53;101462.41;;;17.28;39.32
78123;BME280;67376;44.802;10.332;2023-03-01T00:43:19;101457.81;;;17.22;39.45
78123;BME280;67376;44.802;10.332;2023-03-01T00:45:44;101452.44;;;17.28;39.27
78123;BME280;67376;44.802;10.332;2023-03-01T00:48:10;101457.03;;;17.28;39.33
78123;BME280;67376;44.802;10.332;2023-03-01T00:50:36;101455.53;;;17.25;39.41
78123;BME280;67376;44.802;10.332;2023-03-01T00:53:01;101446.22;;;17.28;39.70
78123;BME280;67376;44.802;10.332;2023-03-01T00:55:27;101447.06;;;17.28;39.61
78123;BME280;67376;44.802;10.332;2023-03-01T00:57:52;101450.59;;;17.29;39.37
78123;BME280;67376;44.802;10.332;2023-03-01T01:00:19;101443.53;;;17.28;39.34
78123;BME280;67376;44.802;10.332;2023-03-01T01:02:44;101426.50;;;17.27;39.19
78123;BME280;67376;44.802;10.332;2023-03-01T01:05:11;101423.16;;;17.25;39.22
78123;BME280;67376;44.802;10.332;2023-03-01T01:07:36;101429.19;;;17.27;39.23
78123;BME280;67376;44.802;10.332;2023-03-01T01:10:02;101420.66;;;17.24;38.86
78123;BME280;67376;44.802;10.332;2023-03-01T01:12:28;101408.84;;;17.25;38.70
78123;BME280;67376;44.802;10.332;2023-03-01T01:14:53;101410.06;;;17.22;39.22
78123;BME280;67376;44.802;10.332;2023-03-01T01:17:19;101405.91;;;17.20;39.05
78123;BME280;67376;44.802;10.332;2023-03-01T01:19:44;101410.06;;;17.22;39.21
78123;BME280;67376;44.802;10.332;2023-03-01T01:22:10;101383.25;;;17.14;39.00
78123;BME280;67376;44.802;10.332;2023-03-01T01:24:35;101395.34;;;17.25;38.93
78123;BME280;67376;44.802;10.332;2023-03-01T01:27:00;101393.03;;;17.22;39.29
78123;BME280;67376;44.802;10.332;2023-03-01T01:29:26;101391.56;;;17.19;39.01
78123;BME280;67376;44.802;10.332;2023-03-01T01:31:51;101383.47;;;17.19;38.81
78123;BME280;67376;44.802;10.332;2023-03-01T01:34:21;101378.72;;;17.21;39.20
78123;BME280;67376;44.802;10.332;2023-03-01T01:36:50;101376.84;;;17.22;39.09
78123;BME280;67376;44.802;10.332;2023-03-01T01:39:18;101376.03;;;17.21;39.20
78123;BME280;67376;44.802;10.332;2023-03-01T01:41:44;101371.03;;;17.18;39.10
78123;BME280;67376;44.802;10.332;2023-03-01T01:44:24;101371.03;;;17.18;39.11
78123;BME280;67376;44.802;10.332;2023-03-01T01:46:55;101381.81;;;17.18;39.23
78123;BME280;67376;44.802;10.332;2023-03-01T01:52:12;101367.09;;;17.21;39.08
78123;BME280;67376;44.802;10.332;2023-03-01T01:57:42;101365.22;;;17.21;39.26
78123;BME280;67376;44.802;10.332;2023-03-01T02:00:09;101359.84;;;17.21;38.92
78123;BME280;67376;44.802;10.332;2023-03-01T02:02:37;101354.63;;;17.20;39.38
78123;BME280;67376;44.802;10.332;2023-03-01T02:07:59;101350.50;;;17.24;39.34
78123;BME280;67376;44.802;10.332;2023-03-01T02:10:25;101338.66;;;17.18;38.83
78123;BME280;67376;44.802;10.332;2023-03-01T02:12:54;101338.25;;;17.21;39.10
78123;BME280;67376;44.802;10.332;2023-03-01T02:15:25;101334.47;;;17.15;39.16
78123;BME280;67376;44.802;10.332;2023-03-01T02:17:52;101346.94;;;17.16;38.96
78123;BME280;67376;44.802;10.332;2023-03-01T02:22:53;101325.16;;;17.18;39.03
78123;BME280;67376;44.802;10.332;2023-03-01T02:30:44;101324.28;;;17.11;39.01
78123;BME280;67376;44.802;10.332;2023-03-01T02:33:29;101317.66;;;17.13;39.15
78123;BME280;67376;44.802;10.332;2023-03-01T02:36:03;101311.84;;;17.16;38.93
78123;BME280;67376;44.802;10.332;2023-03-01T02:38:31;101311.03;;;17.16;39.28
78123;BME280;67376;44.802;10.332;2023-03-01T02:40:57;101315.38;;;17.17;39.04
78123;BME280;67376;44.802;10.332;2023-03-01T02:43:27;101305.00;;;17.14;38.87
78123;BME280;67376;44.802;10.332;2023-03-01T02:45:57;101302.53;;;17.19;39.27
78123;BME280;67376;44.802;10.332;2023-03-01T02:48:23;101311.03;;;17.16;38.87
78123;BME280;67376;44.802;10.332;2023-03-01T02:51:03;101305.63;;;17.16;39.39
78123;BME280;67376;44.802;10.332;2023-03-01T02:54:13;101310.00;;;17.17;39.30
78123;BME280;67376;44.802;10.332;2023-03-01T02:56:18;101302.09;;;17.15;39.12
78123;BME280;67376;44.802;10.332;2023-03-01T02:58:44;101297.97;;;17.20;39.44
78123;BME280;67376;44.802;10.332;2023-03-01T03:01:13;101288.81;;;17.14;39.27
78123;BME280;67376;44.802;10.332;2023-03-01T03:03:40;101286.94;;;17.14;39.15
78123;BME280;67376;44.802;10.332;2023-03-01T03:06:06;101275.72;;;17.11;39.30
78123;BME280;67376;44.802;10.332;2023-03-01T03:08:32;101283.41;;;17.14;39.36
78123;BME280;67376;44.802;10.332;2023-03-01T03:10:57;101281.75;;;17.13;39.47
78123;BME280;67376;44.802;10.332;2023-03-01T03:13:22;101275.97;;;17.16;39.17
78123;BME280;67376;44.802;10.332;2023-03-01T03:15:54;101279.69;;;17.15;39.35
78123;BME280;67376;44.802;10.332;2023-03-01T03:18:20;101277.00;;;17.15;39.16
78123;BME280;67376;44.802;10.332;2023-03-01T03:20:46;101273.22;;;17.09;38.68
78123;BME280;67376;44.802;10.332;2023-03-01T03:23:12;101282.16;;;17.10;39.50
78123;BME280;67376;44.802;10.332;2023-03-01T03:25:38;101268.03;;;17.08;39.52
78123;BME280;67376;44.802;10.332;2023-03-01T03:28:05;101271.16;;;17.11;39.59
78123;BME280;67376;44.802;10.332;2023-03-01T03:30:35;101270.56;;;17.16;38.76
78123;BME280;67376;44.802;10.332;2023-03-01T03:33:01;101275.09;;;17.09;39.12
78123;BME280;67376;44.802;10.332;2023-03-01T03:35:33;101268.88;;;17.08;39.24
78123;BME280;67376;44.802;10.332;2023-03-01T03:38:00;101268.44;;;17.05;39.05
78123;BME280;67376;44.802;10.332;2023-03-01T03:40:38;101264.91;;;17.04;39.34
78123;BME280;67376;44.802;10.332;2023-03-01T03:43:05;101262.44;;;17.09;38.85
78123;BME280;67376;44.802;10.332;2023-03-01T03:45:32;101263.47;;;17.08;39.27
78123;BME280;67376;44.802;10.332;2023-03-01T03:47:59;101267.81;;;17.09;39.20
78123;BME280;67376;44.802;10.332;2023-03-01T03:50:24;101266.59;;;17.12;39.34
78123;BME280;67376;44.802;10.332;2023-03-01T03:52:50;101263.47;;;17.08;39.38
78123;BME280;67376;44.802;10.332;2023-03-01T03:55:15;101262.63;;;17.08;39.25
78123;BME280;67376;44.802;10.332;2023-03-01T03:57:45;101259.34;;;17.12;39.22
78123;BME280;67376;44.802;10.332;2023-03-01T04:00:15;101260.56;;;17.10;38.99
78123;BME280;67376;44.802;10.332;2023-03-01T04:02:43;101258.06;;;17.08;38.95
78123;BME280;67376;44.802;10.332;2023-03-01T04:05:10;101260.97;;;17.07;38.53
78123;BME280;67376;44.802;10.332;2023-03-01T04:07:37;101260.56;;;17.10;39.36
78123;BME280;67376;44.802;10.332;2023-03-01T04:10:04;101261.16;;;17.05;39.27
78123;BME280;67376;44.802;10.332;2023-03-01T04:12:30;101249.56;;;17.05;39.30
78123;BME280;67376;44.802;10.332;2023-03-01T04:14:55;101255.56;;;17.07;39.75
78123;BME280;67376;44.802;10.332;2023-03-01T04:17:20;101251.41;;;17.04;39.46
78123;BME280;67376;44.802;10.332;2023-03-01T04:19:46;101257.25;;;17.08;39.48
78123;BME280;67376;44.802;10.332;2023-03-01T04:22:14;101244.78;;;17.07;39.09
78123;BME280;67376;44.802;10.332;2023-03-01T04:24:42;101248.91;;;17.03;39.02
78123;BME280;67376;44.802;10.332;2023-03-01T04:27:08;101246.66;;;17.06;39.61
78123;BME280;67376;44.802;10.332;2023-03-01T04:29:34;101253.69;;;17.01;39.25
78123;BME280;67376;44.802;10.332;2023-03-01T04:31:59;101250.16;;;17.00;39.52
78123;BME280;67376;44.802;10.332;2023-03-01T04:34:24;101245.38;;;17.02;39.49
78123;BME280;67376;44.802;10.332;2023-03-01T04:36:52;101233.13;;;17.00;39.34
78123;BME280;67376;44.802;10.332;2023-03-01T04:39:17;101247.44;;;17.00;39.25
78123;BME280;67376;44.802;10.332;2023-03-01T04:41:43;101248.91;;;17.03;39.40
78123;BME280;67376;44.802;10.332;2023-03-01T04:44:09;101248.09;;;17.02;39.21
78123;BME280;67376;44.802;10.332;2023-03-01T04:46:35;101250.16;;;17.00;39.49
78123;BME280;67376;44.802;10.332;2023-03-01T04:49:01;101254.31;;;17.03;38.56
78123;BME280;67376;44.802;10.332;2023-03-01T04:51:27;101250.78;;;17.02;39.47
78123;BME280;67376;44.802;10.332;2023-03-01T04:53:52;101254.31;;;17.03;39.23
78123;BME280;67376;44.802;10.332;2023-03-01T04:56:18;101244.72;;;16.94;39.33
78123;BME280;67376;44.802;10.332;2023-03-01T04:58:44;101249.13;;;17.01;39.11
78123;BME280;67376;44.802;10.332;2023-03-01T05:01:18;101237.06;;;16.97;39.20
78123;BME280;67376;44.802;10.332;2023-03-01T05:03:46;101250.34;;;16.99;39.31
78123;BME280;67376;44.802;10.332;2023-03-01T05:06:13;101252.66;;;17.02;39.00
78123;BME280;67376;44.802;10.332;2023-03-01T05:08:39;101237.06;;;16.97;38.81
78123;BME280;67376;44.802;10.332;2023-03-01T05:11:05;101249.94;;;17.02;39.05
78123;BME280;67376;44.802;10.332;2023-03-01T05:13:34;101242.50;;;17.04;39.12
78123;BME280;67376;44.802;10.332;2023-03-01T05:16:01;101242.25;;;16.99;39.34
78123;BME280;67376;44.802;10.332;2023-03-01T05:18:31;101243.53;;;17.03;39.26
78123;BME280;67376;44.802;10.332;2023-03-01T05:21:04;101241.63;;;16.97;39.38
78123;BME280;67376;44.802;10.332;2023-03-01T05:23:31;101242.88;;;17.01;39.32
78123;BME280;67376;44.802;10.332;2023-03-01T05:26:01;101250.97;;;17.01;39.49
78123;BME280;67376;44.802;10.332;2023-03-01T05:28:27;101251.41;;;17.04;39.00
78123;BME280;67376;44.802;10.332;2023-03-01T05:30:57;101247.44;;;17.00;39.17
78123;BME280;67376;44.802;10.332;2023-03-01T05:33:22;101240.78;;;16.96;39.45
78123;BME280;67376;44.802;10.332;2023-03-01T05:35:48;101242.88;;;17.01;39.35
78123;BME280;67376;44.802;10.332;2023-03-01T05:38:15;101233.13;;;17.00;39.56
78123;BME280;67376;44.802;10.332;2023-03-01T05:40:46;101228.38;;;17.02;38.87
78123;BME280;67376;44.802;10.332;2023-03-01T05:43:12;101238.13;;;17.03;39.70
78123;BME280;67376;44.802;10.332;2023-03-01T05:45:38;101237.28;;;17.02;39.40
78123;BME280;67376;44.802;10.332;2023-03-01T05:48:05;101251.63;;;17.03;39.30
78123;BME280;67376;44.802;10.332;2023-03-01T05:50:44;101245.19;;;17.04;39.01
78123;BME280;67376;44.802;10.332;2023-03-01T05:53:16;101242.88;;;17.01;39.61
78123;BME280;67376;44.802;10.332;2023-03-01T05:55:42;101247.66;;;16.99;39.51
78123;BME280;67376;44.802;10.332;2023-03-01T05:58:11;101251.22;;;17.06;39.37
78123;BME280;67376;44.802;10.332;2023-03-01T06:00:36;101249.13;;;17.01;39.36
78123;BME280;67376;44.802;10.332;2023-03-01T06:03:02;101244.97;;;17.05;39.23
78123;BME280;67376;44.802;10.332;2023-03-01T06:05:28;101242.91;;;17.07;39.07
78123;BME280;67376;44.802;10.332;2023-03-01T06:07:54;101245.41;;;17.09;38.99
78123;BME280;67376;44.802;10.332;2023-03-01T06:10:21;101253.06;;;17.05;39.12
78123;BME280;67376;44.802;10.332;2023-03-01T06:12:47;101247.69;;;17.05;39.25
78123;BME280;67376;44.802;10.332;2023-03-01T06:15:15;101248.09;;;17.02;39.73
78123;BME280;67376;44.802;10.332;2023-03-01T06:17:42;101246.66;;;17.06;39.29
78123;BME280;67376;44.802;10.332;2023-03-01T06:20:12;101250.78;;;17.02;39.44
78123;BME280;67376;44.802;10.332;2023-03-01T06:22:38;101255.56;;;17.07;39.97
78123;BME280;67376;44.802;10.332;2023-03-01T06:25:05;101249.31;;;17.00;39.37
78123;BME280;67376;44.802;10.332;2023-03-01T06:27:31;101259.09;;;17.07;39.50
78123;BME280;67376;44.802;10.332;2023-03-01T06:29:56;101250.59;;;17.04;39.65
78123;BME280;67376;44.802;10.332;2023-03-01T06:32:22;101247.69;;;17.05;39.71
78123;BME280;67376;44.802;10.332;2023-03-01T06:34:47;101246.00;;;17.04;40.13
78123;BME280;67376;44.802;10.332;2023-03-01T06:37:13;101250.97;;;17.01;39.30
78123;BME280;67376;44.802;10.332;2023-03-01T06:39:38;101253.16;;;16.15;35.32
78123;BME280;67376;44.802;10.332;2023-03-01T06:42:04;101257.91;;;15.92;35.69
78123;BME280;67376;44.802;10.332;2023-03-01T06:44:30;101253.97;;;16.15;35.28
78123;BME280;67376;44.802;10.332;2023-03-01T06:46:55;101251.38;;;16.29;36.15
78123;BME280;67376;44.802;10.332;2023-03-01T06:49:21;101260.13;;;15.09;35.61
78123;BME280;67376;44.802;10.332;2023-03-01T06:51:46;101250.25;;;14.80;34.79
78123;BME280;67376;44.802;10.332;2023-03-01T06:54:12;101258.00;;;15.05;35.81
78123;BME280;67376;44.802;10.332;2023-03-01T06:56:37;101252.22;;;15.23;34.50
78123;BME280;67376;44.802;10.332;2023-03-01T06:59:03;101262.28;;;15.35;33.79
78123;BME280;67376;44.802;10.332;2023-03-01T07:01:29;101257.00;;;15.42;33.93
78123;BME280;67376;44.802;10.332;2023-03-01T07:03:55;101258.91;;;15.48;33.67
78123;BME280;67376;44.802;10.332;2023-03-01T07:06:21;101266.59;;;15.51;34.60
78123;BME280;67376;44.802;10.332;2023-03-01T07:08:46;101269.50;;;15.49;33.32
78123;BME280;67376;44.802;10.332;2023-03-01T07:11:12;101254.28;;;15.42;34.62
78123;BME280;67376;44.802;10.332;2023-03-01T07:13:37;101263.91;;;15.51;34.15
78123;BME280;67376;44.802;10.332;2023-03-01T07:16:03;101231.22;;;15.33;33.11
78123;BME280;67376;44.802;10.332;2023-03-01T07:18:28;101246.03;;;15.43;33.82
78123;BME280;67376;44.802;10.332;2023-03-01T07:20:54;101255.31;;;15.41;34.25
78123;BME280;67376;44.802;10.332;2023-03-01T07:23:19;101258.47;;;15.44;33.94
78123;BME280;67376;44.802;10.332;2023-03-01T07:25:51;101257.81;;;15.42;33.89
78123;BME280;67376;44.802;10.332;2023-03-01T07:28:17;101249.28;;;15.39;33.28
78123;BME280;67376;44.802;10.332;2023-03-01T07:30:42;101244.47;;;15.34;33.60
78123;BME280;67376;44.802;10.332;2023-03-01T07:33:08;101254.22;;;15.35;32.61
78123;BME280;67376;44.802;10.332;2023-03-01T07:35:33;101250.44;;;15.30;32.45
78123;BME280;67376;44.802;10.332;2023-03-01T07:37:58;101258.13;;;15.33;32.67
78123;BME280;67376;44.802;10.332;2023-03-01T07:40:24;101241.59;;;15.36;32.85
78123;BME280;67376;44.802;10.332;2023-03-01T07:42:55;101247.56;;;15.31;33.20
78123;BME280;67376;44.802;10.332;2023-03-01T07:45:20;101244.47;;;15.34;33.59
78123;BME280;67376;44.802;10.332;2023-03-01T07:47:45;101249.88;;;15.34;33.23
78123;BME280;67376;44.802;10.332;2023-03-01T07:50:11;101250.88;;;15.33;33.71
78123;BME280;67376;44.802;10.332;2023-03-01T07:52:36;101244.28;;;15.36;33.22
78123;BME280;67376;44.802;10.332;2023-03-01T07:55:02;101240.97;;;15.34;33.95
78123;BME280;67376;44.802;10.332;2023-03-01T07:57:27;101247.09;;;15.28;34.72
78123;BME280;67376;44.802;10.332;2023-03-01T07:59:52;101240.31;;;15.32;34.93
78123;BME280;67376;44.802;10.332;2023-03-01T08:02:18;101236.59;;;15.33;34.39
78123;BME280;67376;44.802;10.332;2023-03-01T08:04:43;101234.09;;;15.31;35.08
78123;BME280;67376;44.802;10.332;2023-03-01T08:07:09;101229.56;;;15.32;34.12
78123;BME280;67376;44.802;10.332;2023-03-01T08:09:35;101229.09;;;15.28;35.33
78123;BME280;67376;44.802;10.332;2023-03-01T08:12:01;101219.19;;;15.29;35.84
78123;BME280;67376;44.802;10.332;2023-03-01T08:14:27;101231.22;;;15.33;34.79
78123;BME280;67376;44.802;10.332;2023-03-01T08:16:52;101235.56;;;15.34;34.55
78123;BME280;67376;44.802;10.332;2023-03-01T08:19:17;101221.03;;;15.28;34.94
78123;BME280;67376;44.802;10.332;2023-03-01T08:21:43;101224.75;;;15.27;35.11
78123;BME280;67376;44.802;10.332;2023-03-01T08:24:09;101239.47;;;15.31;34.85
78123;BME280;67376;44.802;10.332;2023-03-01T08:26:35;101232.16;;;15.25;34.01
78123;BME280;67376;44.802;10.332;2023-03-01T08:29:02;101234.84;;;15.25;34.59
78123;BME280;67376;44.802;10.332;2023-03-01T08:31:35;101221.78;;;15.22;34.93
78123;BME280;67376;44.802;10.332;2023-03-01T08:34:04;101232.63;;;15.29;34.65
78123;BME280;67376;44.802;10.332;2023-03-01T08:36:33;101212.88;;;15.22;34.76
78123;BME280;67376;44.802;10.332;2023-03-01T08:39:01;101213.06;;;15.20;34.46
78123;BME280;67376;44.802;10.332;2023-03-01T08:41:27;101210.13;;;15.15;35.08
78123;BME280;67376;44.802;10.332;2023-03-01T08:43:53;101217.81;;;15.18;34.69
78123;BME280;67376;44.802;10.332;2023-03-01T08:46:24;101210.19;;;15.22;34.90
78123;BME280;67376;44.802;10.332;2023-03-01T08:48:49;101197.72;;;15.35;34.07
78123;BME280;67376;44.802;10.332;2023-03-01T08:51:17;101191.91;;;15.53;34.06
78123;BME280;67376;44.802;10.332;2023-03-01T08:53:43;101193.44;;;15.62;34.67
78123;BME280;67376;44.802;10.332;2023-03-01T08:56:09;101188.13;;;15.69;34.68
78123;BME280;67376;44.802;10.332;2023-03-01T08:58:35;101179.47;;;15.73;33.99
78123;BME280;67376;44.802;10.332;2023-03-01T09:01:07;101181.25;;;15.88;34.24
78123;BME280;67376;44.802;10.332;2023-03-01T09:03:32;101177.34;;;15.90;34.07
78123;BME280;67376;44.802;10.332;2023-03-01T09:06:02;101181.09;;;15.96;34.29
78123;BME280;67376;44.802;10.332;2023-03-01T09:08:27;101189.44;;;16.01;34.95
78123;BME280;67376;44.802;10.332;2023-03-01T09:10:53;101185.75;;;16.08;34.05
78123;BME280;67376;44.802;10.332;2023-03-01T09:13:18;101184.94;;;16.08;34.58
78123;BME280;67376;44.802;10.332;2023-03-01T09:15:44;101182.28;;;16.14;34.52
78123;BME280;67376;44.802;10.332;2023-03-01T09:18:09;101178.13;;;16.12;34.19
78123;BME280;67376;44.802;10.332;2023-03-01T09:20:34;101176.28;;;16.19;34.92
78123;BME280;67376;44.802;10.332;2023-03-01T09:23:00;101166.97;;;16.22;34.88
78123;BME280;67376;44.802;10.332;2023-03-01T09:25:26;101172.59;;;16.27;34.36
78123;BME280;67376;44.802;10.332;2023-03-01T09:27:53;101174.06;;;16.29;34.49
78123;BME280;67376;44.802;10.332;2023-03-01T09:30:18;101174.06;;;16.29;34.16
78123;BME280;67376;44.802;10.332;2023-03-01T09:32:44;101166.81;;;16.30;35.07
78123;BME280;67376;44.802;10.332;2023-03-01T09:35:10;101178.22;;;16.32;34.83
78123;BME280;67376;44.802;10.332;2023-03-01T09:37:36;101173.66;;;16.32;34.33
78123;BME280;67376;44.802;10.332;2023-03-01T09:40:05;101170.56;;;16.35;35.49
78123;BME280;67376;44.802;10.332;2023-03-01T09:42:33;101171.81;;;16.33;36.86
78123;BME280;67376;44.802;10.332;2023-03-01T09:45:27;101176.56;;;16.31;41.73
78123;BME280;67376;44.802;10.332;2023-03-01T09:47:55;101170.97;;;16.32;41.50
78123;BME280;67376;44.802;10.332;2023-03-01T09:50:21;101161.03;;;16.33;40.56
78123;BME280;67376;44.802;10.332;2023-03-01T09:55:15;101157.16;;;16.42;38.47
78123;BME280;67376;44.802;10.332;2023-03-01T09:57:50;101160.47;;;16.44;37.75
78123;BME280;67376;44.802;10.332;2023-03-01T10:00:39;101149.69;;;16.44;37.83
78123;BME280;67376;44.802;10.332;2023-03-01T10:03:12;101145.75;;;16.46;38.05
78123;BME280;67376;44.802;10.332;2023-03-01T10:05:56;101152.38;;;16.44;37.64
78123;BME280;67376;44.802;10.332;2023-03-01T10:08:26;101146.78;;;16.45;37.70
78123;BME280;67376;44.802;10.332;2023-03-01T10:10:52;101144.94;;;16.46;37.69
78123;BME280;67376;44.802;10.332;2023-03-01T10:19:01;101114.66;;;16.44;36.93
78123;BME280;67376;44.802;10.332;2023-03-01T10:21:28;101124.22;;;16.46;37.09
78123;BME280;67376;44.802;10.332;2023-03-01T10:24:08;101116.53;;;16.43;36.89
78123;BME280;67376;44.802;10.332;2023-03-01T10:29:09;101117.16;;;16.45;36.42
78123;BME280;67376;44.802;10.332;2023-03-01T10:31:42;101115.09;;;16.47;36.94
78123;BME280;67376;44.802;10.332;2023-03-01T10:36:42;101103.88;;;16.44;37.27
78123;BME280;67376;44.802;10.332;2023-03-01T10:39:17;101096.63;;;16.44;37.31
78123;BME280;67376;44.802;10.332;2023-03-01T10:42:19;101102.66;;;16.46;36.78
78123;BME280;67376;44.802;10.332;2023-03-01T10:44:47;101085.84;;;16.44;36.64
78123;BME280;67376;44.802;10.332;2023-03-01T10:47:19;101093.31;;;16.49;36.48
78123;BME280;67376;44.802;10.332;2023-03-01T10:50:05;101097.88;;;16.48;36.73
78123;BME280;67376;44.802;10.332;2023-03-01T10:52:40;101099.94;;;16.46;36.62
78123;BME280;67376;44.802;10.332;2023-03-01T10:55:30;101084.63;;;16.47;37.18
78123;BME280;67376;44.802;10.332;2023-03-01T10:58:26;101082.31;;;16.44;36.96
78123;BME280;67376;44.802;10.332;2023-03-01T11:01:00;101069.69;;;16.44;36.88
78123;BME280;67376;44.802;10.332;2023-03-01T11:03:30;101075.50;;;16.48;37.46
78123;BME280;67376;44.802;10.332;2023-03-01T11:06:00;101073.00;;;16.46;36.78
78123;BME280;67376;44.802;10.332;2023-03-01T11:08:44;101065.75;;;16.47;36.76
78123;BME280;67376;44.802;10.332;2023-03-01T11:13:52;101046.84;;;16.40;37.28
78123;BME280;67376;44.802;10.332;2023-03-01T11:16:27;101055.56;;;16.42;37.22
78123;BME280;67376;44.802;10.332;2023-03-01T11:19:13;101043.56;;;16.45;36.64
78123;BME280;67376;44.802;10.332;2023-03-01T11:24:49;101043.34;;;16.46;36.94
78123;BME280;67376;44.802;10.332;2023-03-01T11:30:02;101046.66;;;16.42;36.47
78123;BME280;67376;44.802;10.332;2023-03-01T11:32:36;101048.75;;;16.46;37.14
78123;BME280;67376;44.802;10.332;2023-03-01T11:35:18;101057.66;;;16.47;36.58
78123;BME280;67376;44.802;10.332;2023-03-01T11:38:15;101059.31;;;16.48;36.84
78123;BME280;67376;44.802;10.332;2023-03-01T11:40:56;101062.44;;;16.45;37.19
78123;BME280;67376;44.802;10.332;2023-03-01T11:43:56;101074.88;;;16.46;37.08
78123;BME280;67376;44.802;10.332;2023-03-01T11:46:36;101064.50;;;16.43;36.91
78123;BME280;67376;44.802;10.332;2023-03-01T11:55:01;101075.06;;;16.44;36.73
78123;BME280;67376;44.802;10.332;2023-03-01T12:06:38;101080.25;;;16.46;36.90
78123;BME280;67376;44.802;10.332;2023-03-01T12:09:50;101071.13;;;16.47;37.11
78123;BME280;67376;44.802;10.332;2023-03-01T12:24:10;101069.69;;;16.44;37.51
78123;BME280;67376;44.802;10.332;2023-03-01T12:35:33;101063.84;;;16.41;37.13
78123;BME280;67376;44.802;10.332;2023-03-01T12:41:35;101066.34;;;16.42;37.83
78123;BME280;67376;44.802;10.332;2023-03-01T12:47:05;101082.09;;;16.39;37.95
78123;BME280;67376;44.802;10.332;2023-03-01T12:49:35;101085.00;;;16.44;37.96
78123;BME280;67376;44.802;10.332;2023-03-01T12:54:53;101065.13;;;16.45;37.26
78123;BME280;67376;44.802;10.332;2023-03-01T12:57:33;101051.22;;;16.41;37.84
78123;BME280;67376;44.802;10.332;2023-03-01T13:00:12;101053.72;;;16.43;37.88
78123;BME280;67376;44.802;10.332;2023-03-01T13:02:52;101055.38;;;16.44;38.11
78123;BME280;67376;44.802;10.332;2023-03-01T13:05:39;101058.28;;;16.42;37.91
78123;BME280;67376;44.802;10.332;2023-03-01T13:08:20;101064.09;;;16.46;37.82
78123;BME280;67376;44.802;10.332;2023-03-01T13:10:54;101054.13;;;16.46;37.84
78123;BME280;67376;44.802;10.332;2023-03-01T13:13:24;101057.25;;;16.43;37.46
78123;BME280;67376;44.802;10.332;2023-03-01T13:15:51;101057.63;;;16.40;38.09
78123;BME280;67376;44.802;10.332;2023-03-01T13:31:00;101014.13;;;16.43;37.96
78123;BME280;67376;44.802;10.332;2023-03-01T13:35:50;101001.06;;;16.40;37.88
78123;BME280;67376;44.802;10.332;2023-03-01T13:38:45;101011.84;;;16.40;38.08
78123;BME280;67376;44.802;10.332;2023-03-01T13:41:12;101013.91;;;16.38;38.32
78123;BME280;67376;44.802;10.332;2023-03-01T13:43:40;101016.59;;;16.38;37.77
78123;BME280;67376;44.802;10.332;2023-03-01T13:46:10;101006.88;;;16.44;37.60
78123;BME280;67376;44.802;10.332;2023-03-01T13:48:37;101009.75;;;16.42;37.82
78123;BME280;67376;44.802;10.332;2023-03-01T13:51:07;101000.84;;;16.42;38.34
78123;BME280;67376;44.802;10.332;2023-03-01T13:53:36;101023.44;;;16.41;37.38
78123;BME280;67376;44.802;10.332;2023-03-01T13:56:08;101041.06;;;16.43;38.29
78123;BME280;67376;44.802;10.332;2023-03-01T14:03:47;101053.47;;;16.38;37.73
78123;BME280;67376;44.802;10.332;2023-03-01T14:06:15;101057.44;;;16.42;38.37
78123;BME280;67376;44.802;10.332;2023-03-01T14:08:43;101056.59;;;16.41;38.41
78123;BME280;67376;44.802;10.332;2023-03-01T14:19:31;101047.91;;;16.46;39.14
78123;BME280;67376;44.802;10.332;2023-03-01T14:24:47;101050.41;;;16.47;38.80
78123;BME280;67376;44.802;10.332;2023-03-01T14:27:14;101036.94;;;16.47;39.07
78123;BME280;67376;44.802;10.332;2023-03-01T14:29:40;101038.41;;;16.50;38.88
78123;BME280;67376;44.802;10.332;2023-03-01T14:32:20;101047.34;;;16.57;38.37
78123;BME280;67376;44.802;10.332;2023-03-01T14:34:48;101051.06;;;16.56;38.92
78123;BME280;67376;44.802;10.332;2023-03-01T14:37:29;101039.25;;;16.57;39.33
78123;BME280;67376;44.802;10.332;2023-03-01T14:39:57;101037.44;;;16.64;39.53
78123;BME280;67376;44.802;10.332;2023-03-01T14:42:35;101037.81;;;16.61;39.18
78123;BME280;67376;44.802;10.332;2023-03-01T14:45:02;101045.13;;;16.67;39.42